Time;durP1;ratioP1;P1;durP2;ratioP2;P2;SDS_P1;SDS_P2;PMS_P1;PMS_P2;Temp;Humidity;BMP_temperature;BMP_pressure;BME280_temperature;BME280_humidity;BME280_pressure;Samples;Min_cycle;Max_cycle;Signal;HPM_P1;HPM_P2
2021/11/24 00:01:11;;;;;;;6.93;4.85;;;;;;;-140.79;100.00;63287.88;4988299;28;20034;-64
2021/11/24 00:03:36;;;;;;;6.53;4.57;;;;;;;-140.79;100.00;63287.88;4987267;28;20058;-64
2021/11/24 00:06:02;;;;;;;5.82;4.57;;;;;;;-140.79;100.00;63287.88;4987064;28;20026;-64
2021/11/24 00:08:27;;;;;;;6.03;4.60;;;;;;;-140.79;100.00;63287.88;4988761;28;20074;-64
2021/11/24 00:10:53;;;;;;;5.88;4.55;;;;;;;-140.79;100.00;63287.88;4988415;28;20034;-64
2021/11/24 00:13:19;;;;;;;5.85;4.60;;;;;;;-140.79;100.00;63287.88;4988333;28;20062;-64
2021/11/24 00:15:44;;;;;;;7.18;5.13;;;;;;;-140.79;100.00;63287.88;4988115;28;20034;-64
2021/11/24 00:18:10;;;;;;;5.90;4.55;;;;;;;-140.79;100.00;63287.88;4987021;28;20120;-65
2021/11/24 00:20:35;;;;;;;6.40;4.78;;;;;;;-140.79;100.00;63287.88;4988163;28;20037;-64
2021/11/24 00:23:00;;;;;;;5.75;4.35;;;;;;;-140.79;100.00;63287.88;4988092;28;20022;-65
2021/11/24 00:25:26;;;;;;;6.68;4.82;;;;;;;-140.79;100.00;63287.88;4988069;28;20038;-64
2021/11/24 00:27:52;;;;;;;6.30;4.90;;;;;;;-140.79;100.00;63287.88;4988253;28;20069;-64
2021/11/24 00:30:17;;;;;;;6.05;4.80;;;;;;;-140.79;100.00;63287.88;4986331;28;20038;-64
2021/11/24 00:32:43;;;;;;;5.50;4.18;;;;;;;-140.79;100.00;63287.88;4987691;28;20038;-64
2021/11/24 00:35:08;;;;;;;5.25;4.30;;;;;;;-140.79;100.00;63287.88;4987721;28;20030;-64
2021/11/24 00:37:34;;;;;;;7.15;4.80;;;;;;;-140.79;100.00;63287.88;4986952;28;20513;-64
2021/11/24 00:39:59;;;;;;;6.38;4.72;;;;;;;-140.79;100.00;63287.88;4986397;28;20022;-63
2021/11/24 00:42:25;;;;;;;6.50;4.72;;;;;;;-140.79;100.00;63287.88;4988114;28;20042;-64
2021/11/24 00:44:50;;;;;;;6.22;4.75;;;;;;;-140.79;100.00;63287.88;4988349;28;20032;-63
2021/11/24 00:47:16;;;;;;;5.40;4.35;;;;;;;-140.79;100.00;63287.88;4987021;28;20033;-64
2021/11/24 00:49:41;;;;;;;6.78;4.78;;;;;;;-140.79;100.00;63287.88;4987912;28;20018;-64
2021/11/24 00:52:07;;;;;;;5.88;4.45;;;;;;;-140.79;100.00;63287.88;4987899;28;20060;-64
2021/11/24 00:54:33;;;;;;;6.45;4.70;;;;;;;-140.79;100.00;63287.88;4986381;28;20038;-64
2021/11/24 00:56:58;;;;;;;5.85;4.80;;;;;;;-140.79;100.00;63287.88;4987833;28;20026;-65
2021/11/24 00:59:24;;;;;;;6.10;4.70;;;;;;;-140.79;100.00;63287.88;4970565;28;20504;-64
2021/11/24 01:02:10;;;;;;;7.13;5.13;;;;;;;-140.79;100.00;63287.88;5342881;22;20559;-63
2021/11/24 01:04:35;;;;;;;6.85;5.05;;;;;;;-140.79;100.00;63287.88;4962973;28;20083;-63
2021/11/24 01:07:01;;;;;;;6.95;4.90;;;;;;;-140.79;100.00;63287.88;4965994;28;20106;-63
2021/11/24 01:09:27;;;;;;;6.00;4.82;;;;;;;-140.79;100.00;63287.88;4966210;28;20528;-63
2021/11/24 01:11:52;;;;;;;6.55;5.10;;;;;;;-140.79;100.00;63287.88;4965684;28;20031;-63
2021/11/24 01:14:18;;;;;;;5.50;4.35;;;;;;;-140.79;100.00;63287.88;4966224;28;20022;-63
2021/11/24 01:16:44;;;;;;;6.50;4.97;;;;;;;-140.79;100.00;63287.88;4966049;28;20544;-64
2021/11/24 01:19:10;;;;;;;6.63;4.78;;;;;;;-140.79;100.00;63287.88;4965950;28;20041;-63
2021/11/24 01:21:35;;;;;;;6.97;4.72;;;;;;;-140.79;100.00;63287.88;4964023;28;20039;-64
2021/11/24 01:24:01;;;;;;;6.43;4.97;;;;;;;-140.79;100.00;63287.88;4965527;28;20485;-63
2021/11/24 01:26:26;;;;;;;6.15;4.68;;;;;;;-140.79;100.00;63287.88;4949186;28;20030;-64
2021/11/24 01:28:52;;;;;;;5.70;4.22;;;;;;;-140.79;100.00;63287.88;4965290;28;20042;-64
2021/11/24 01:31:18;;;;;;;6.10;4.88;;;;;;;-140.79;100.00;63287.88;4949727;28;20626;-64
2021/11/24 01:33:43;;;;;;;6.03;4.78;;;;;;;-140.79;100.00;63287.88;4949298;28;20031;-64
2021/11/24 01:36:09;;;;;;;5.50;4.35;;;;;;;-140.79;100.00;63287.88;4965109;28;20050;-63
2021/11/24 01:38:34;;;;;;;5.90;4.53;;;;;;;-140.79;100.00;63287.88;4965699;28;20038;-64
2021/11/24 01:41:00;;;;;;;5.78;4.60;;;;;;;-140.79;100.00;63287.88;4958602;28;20073;-63
2021/11/24 01:43:26;;;;;;;5.80;4.65;;;;;;;-140.79;100.00;63287.88;5005592;28;20013;-64
2021/11/24 01:45:51;;;;;;;6.18;4.70;;;;;;;-140.79;100.00;63287.88;5005241;28;20120;-64
2021/11/24 01:48:17;;;;;;;6.22;4.70;;;;;;;-140.79;100.00;63287.88;5005361;28;20088;-63
2021/11/24 01:50:42;;;;;;;6.32;4.75;;;;;;;-140.79;100.00;63287.88;5006598;28;20506;-64
2021/11/24 01:53:07;;;;;;;6.68;4.50;;;;;;;-140.79;100.00;63287.88;5021758;28;20484;-64
2021/11/24 01:55:33;;;;;;;5.40;4.50;;;;;;;-140.79;100.00;63287.88;5005529;28;20034;-64
2021/11/24 01:57:59;;;;;;;5.38;4.40;;;;;;;-140.79;100.00;63287.88;5006705;28;20022;-64
2021/11/24 02:00:26;;;;;;;6.45;4.57;;;;;;;-140.79;100.00;63287.88;5004972;28;20116;-63
2021/11/24 02:02:52;;;;;;;6.05;4.60;;;;;;;-140.79;100.00;63287.88;5006145;28;20073;-64
2021/11/24 02:05:18;;;;;;;6.00;4.60;;;;;;;-140.79;100.00;63287.88;5006815;28;20520;-63
2021/11/24 02:07:43;;;;;;;6.47;4.90;;;;;;;-140.79;100.00;63287.88;5021664;28;20030;-63
2021/11/24 02:10:09;;;;;;;5.47;4.40;;;;;;;-140.79;100.00;63287.88;5005148;28;20085;-63
2021/11/24 02:12:34;;;;;;;5.75;4.68;;;;;;;-140.79;100.00;63287.88;5006407;28;20018;-63
2021/11/24 02:15:00;;;;;;;5.75;4.53;;;;;;;-140.79;100.00;63287.88;5005375;28;20424;-63
2021/11/24 02:17:25;;;;;;;5.72;4.68;;;;;;;-140.79;100.00;63287.88;5005525;28;20022;-63
2021/11/24 02:19:51;;;;;;;6.25;4.85;;;;;;;-140.79;100.00;63287.88;5021390;28;20159;-63
2021/11/24 02:22:16;;;;;;;5.57;4.65;;;;;;;-140.79;100.00;63287.88;5021629;28;20419;-63
2021/11/24 02:24:44;;;;;;;5.70;4.40;;;;;;;-140.79;100.00;63287.88;5005203;28;20034;-63
2021/11/24 02:27:10;;;;;;;5.70;4.55;;;;;;;-140.79;100.00;63287.88;5004609;28;20030;-63
2021/11/24 02:29:36;;;;;;;5.75;5.00;;;;;;;-140.79;100.00;63287.88;5006420;28;20420;-63
2021/11/24 02:32:02;;;;;;;6.32;4.82;;;;;;;-140.79;100.00;63287.88;5004773;28;20026;-63
2021/11/24 02:34:28;;;;;;;6.50;4.78;;;;;;;-140.79;100.00;63287.88;5006121;28;20030;-63
2021/11/24 02:36:54;;;;;;;6.97;5.07;;;;;;;-140.79;100.00;63287.88;5006091;28;20083;-63
2021/11/24 02:39:19;;;;;;;5.97;4.78;;;;;;;-140.79;100.00;63287.88;5006232;28;20022;-63
2021/11/24 02:41:45;;;;;;;5.88;4.50;;;;;;;-140.79;100.00;63287.88;5005077;28;20025;-63
2021/11/24 02:44:20;;;;;;;5.70;4.47;;;;;;;-140.79;100.00;63287.88;5006344;28;20769;-63
2021/11/24 02:46:46;;;;;;;6.72;5.13;;;;;;;-140.79;100.00;63287.88;5006279;28;20099;-63
2021/11/24 02:49:12;;;;;;;6.13;4.57;;;;;;;-140.79;100.00;63287.88;5004594;28;20034;-63
2021/11/24 02:51:38;;;;;;;5.57;4.45;;;;;;;-140.79;100.00;63287.88;5005807;28;20425;-63
2021/11/24 02:54:04;;;;;;;5.70;4.30;;;;;;;-140.79;100.00;63287.88;5021185;28;20026;-63
2021/11/24 02:56:29;;;;;;;5.75;4.47;;;;;;;-140.79;100.00;63287.88;5004997;28;20044;-63
2021/11/24 02:58:55;;;;;;;5.95;4.45;;;;;;;-140.79;100.00;63287.88;5005855;28;20045;-63
2021/11/24 03:01:20;;;;;;;6.00;4.53;;;;;;;-140.79;100.00;63287.88;5005886;28;20037;-63
2021/11/24 03:03:46;;;;;;;5.80;4.55;;;;;;;-140.79;100.00;63287.88;5006148;28;20117;-63
2021/11/24 03:06:11;;;;;;;6.18;4.60;;;;;;;-140.79;100.00;63287.88;5005979;28;20040;-63
2021/11/24 03:08:37;;;;;;;5.80;4.40;;;;;;;-140.79;100.00;63287.88;5005914;28;20033;-63
2021/11/24 03:11:02;;;;;;;6.30;4.90;;;;;;;-140.79;100.00;63287.88;5007814;28;20527;-63
2021/11/24 03:13:28;;;;;;;5.38;4.43;;;;;;;-140.79;100.00;63287.88;5009442;28;20029;-63
2021/11/24 03:15:53;;;;;;;6.10;4.55;;;;;;;-140.79;100.00;63287.88;5009688;28;20033;-63
2021/11/24 03:18:19;;;;;;;5.43;4.43;;;;;;;-140.79;100.00;63287.88;5009356;28;20038;-63
2021/11/24 03:20:44;;;;;;;5.18;4.43;;;;;;;-140.79;100.00;63287.88;5009436;28;20034;-63
2021/11/24 03:23:10;;;;;;;6.15;4.60;;;;;;;-140.79;100.00;63287.88;5008980;28;20053;-63
2021/11/24 03:25:35;;;;;;;5.22;4.13;;;;;;;-140.79;100.00;63287.88;5009566;28;20026;-63
2021/11/24 03:28:01;;;;;;;5.88;4.68;;;;;;;-140.79;100.00;63287.88;5008898;28;20484;-64
2021/11/24 03:30:28;;;;;;;6.35;4.82;;;;;;;-140.79;100.00;63287.88;5007446;28;20026;-64
2021/11/24 03:32:54;;;;;;;6.15;4.38;;;;;;;-140.79;100.00;63287.88;5008674;28;20033;-64
2021/11/24 03:35:20;;;;;;;6.25;4.45;;;;;;;-140.79;100.00;63287.88;5009244;28;20068;-63
2021/11/24 03:37:45;;;;;;;5.25;4.55;;;;;;;-140.79;100.00;63287.88;5007731;28;20044;-63
2021/11/24 03:40:12;;;;;;;5.82;4.20;;;;;;;-140.79;100.00;63287.88;5008739;28;20042;-66
2021/11/24 03:42:41;;;;;;;5.55;4.63;;;;;;;-140.79;100.00;63287.88;5009034;28;20100;-64
2021/11/24 03:45:06;;;;;;;6.03;4.72;;;;;;;-140.79;100.00;63287.88;5007512;28;20048;-64
2021/11/24 03:47:32;;;;;;;5.88;4.40;;;;;;;-140.79;100.00;63287.88;5008536;28;20412;-63
2021/11/24 03:49:57;;;;;;;5.72;4.20;;;;;;;-140.79;100.00;63287.88;5008337;28;20046;-64
2021/11/24 03:52:23;;;;;;;5.60;4.45;;;;;;;-140.79;100.00;63287.88;5007155;28;20033;-63
2021/11/24 03:54:48;;;;;;;5.18;4.40;;;;;;;-140.79;100.00;63287.88;5007800;28;20044;-63
2021/11/24 03:57:14;;;;;;;5.32;4.82;;;;;;;-140.79;100.00;63287.88;5007640;28;20017;-63
2021/11/24 03:59:39;;;;;;;5.32;4.45;;;;;;;-140.79;100.00;63287.88;5006912;28;20029;-63
2021/11/24 04:02:05;;;;;;;5.82;4.85;;;;;;;-140.79;100.00;63287.88;5007089;28;20698;-63
2021/11/24 04:04:30;;;;;;;5.75;4.32;;;;;;;-140.79;100.00;63287.88;5008206;28;20038;-64
2021/11/24 04:06:55;;;;;;;5.90;4.70;;;;;;;-140.79;100.00;63287.88;5008328;28;20030;-65
2021/11/24 04:09:21;;;;;;;5.13;3.88;;;;;;;-140.79;100.00;63287.88;5008267;28;20037;-63
2021/11/24 04:11:46;;;;;;;4.82;3.92;;;;;;;-140.79;100.00;63287.88;5008317;28;20404;-63
2021/11/24 04:14:12;;;;;;;6.03;4.65;;;;;;;-140.79;100.00;63287.88;5023333;28;20053;-63
2021/11/24 04:16:37;;;;;;;5.72;4.25;;;;;;;-140.79;100.00;63287.88;5023469;28;20030;-64
2021/11/24 04:19:03;;;;;;;5.55;4.50;;;;;;;-140.79;100.00;63287.88;5007850;28;20093;-63
2021/11/24 04:21:30;;;;;;;5.32;4.55;;;;;;;-140.79;100.00;63287.88;5006767;28;20032;-64
2021/11/24 04:23:55;;;;;;;5.45;4.50;;;;;;;-140.79;100.00;63287.88;5006998;28;20096;-64
2021/11/24 04:26:21;;;;;;;5.60;4.68;;;;;;;-140.79;100.00;63287.88;5007992;28;20026;-64
2021/11/24 04:28:46;;;;;;;5.15;4.30;;;;;;;-140.79;100.00;63287.88;5008287;28;20025;-63
2021/11/24 04:31:12;;;;;;;4.95;4.03;;;;;;;-140.79;100.00;63287.88;5023201;28;20034;-64
2021/11/24 04:33:37;;;;;;;5.93;4.57;;;;;;;-140.79;100.00;63287.88;5007722;28;20036;-64
2021/11/24 04:36:03;;;;;;;5.72;4.55;;;;;;;-140.79;100.00;63287.88;5006908;28;20040;-64
2021/11/24 04:38:29;;;;;;;5.72;4.32;;;;;;;-140.79;100.00;63287.88;5007479;28;20057;-63
2021/11/24 04:40:55;;;;;;;5.50;4.20;;;;;;;-140.79;100.00;63287.88;5007777;28;20108;-63
2021/11/24 04:43:21;;;;;;;5.63;4.35;;;;;;;-140.79;100.00;63287.88;5007973;28;20084;-64
2021/11/24 04:45:48;;;;;;;5.60;4.50;;;;;;;-140.79;100.00;63287.88;5006651;28;20041;-63
2021/11/24 04:48:14;;;;;;;5.25;4.50;;;;;;;-140.79;100.00;63287.88;5005969;28;20048;-64
2021/11/24 04:50:40;;;;;;;5.43;4.55;;;;;;;-140.79;100.00;63287.88;5022732;28;20514;-64
2021/11/24 04:53:05;;;;;;;5.45;4.50;;;;;;;-140.79;100.00;63287.88;5006101;28;20124;-63
2021/11/24 04:55:33;;;;;;;5.47;4.30;;;;;;;-140.79;100.00;63287.88;5007681;28;20037;-64
2021/11/24 04:57:58;;;;;;;4.90;4.00;;;;;;;-140.79;100.00;63287.88;5007796;28;20034;-63
2021/11/24 05:00:24;;;;;;;5.50;4.53;;;;;;;-140.79;100.00;63287.88;5006938;28;20407;-63
2021/11/24 05:02:51;;;;;;;5.95;4.60;;;;;;;-140.79;100.00;63287.88;5007456;28;20037;-63
2021/11/24 05:05:22;;;;;;;5.65;4.38;;;;;;;-140.79;100.00;63287.88;5007595;28;20053;-64
2021/11/24 05:07:47;;;;;;;6.07;4.70;;;;;;;-140.79;100.00;63287.88;5006048;28;20030;-63
2021/11/24 05:10:13;;;;;;;5.88;4.85;;;;;;;-140.79;100.00;63287.88;5007084;28;20116;-64
2021/11/24 05:12:38;;;;;;;5.43;4.25;;;;;;;-140.79;100.00;63287.88;5007121;28;20025;-64
2021/11/24 05:15:07;;;;;;;5.40;4.30;;;;;;;-140.79;100.00;63287.88;5007199;28;20045;-64
2021/11/24 05:17:33;;;;;;;5.57;4.50;;;;;;;-140.79;100.00;63287.88;5007323;28;20471;-64
2021/11/24 05:19:59;;;;;;;5.40;4.40;;;;;;;-140.79;100.00;63287.88;5005344;28;20029;-64
2021/11/24 05:22:25;;;;;;;5.13;4.03;;;;;;;-140.79;100.00;63287.88;5007206;28;20416;-63
2021/11/24 05:24:51;;;;;;;5.57;4.50;;;;;;;-140.79;100.00;63287.88;5006868;28;20045;-63
2021/11/24 05:27:17;;;;;;;5.00;4.10;;;;;;;-140.79;100.00;63287.88;5007103;28;20118;-64
2021/11/24 05:29:43;;;;;;;6.30;4.75;;;;;;;-140.79;100.00;63287.88;5006271;28;20036;-64
2021/11/24 05:32:08;;;;;;;5.75;4.32;;;;;;;-140.79;100.00;63287.88;5008382;28;20030;-66
2021/11/24 05:34:33;;;;;;;5.18;4.07;;;;;;;-140.79;100.00;63287.88;5026259;28;20079;-66
2021/11/24 05:37:00;;;;;;;5.45;4.35;;;;;;;-140.79;100.00;63287.88;5026647;28;20114;-66
2021/11/24 05:39:25;;;;;;;5.45;4.35;;;;;;;-140.79;100.00;63287.88;5026889;28;20118;-66
2021/11/24 05:41:51;;;;;;;5.03;3.97;;;;;;;-140.79;100.00;63287.88;5025668;28;20033;-66
2021/11/24 05:46:46;;;;;;;4.90;4.05;;;;;;;-140.79;100.00;63287.88;4985875;28;20037;-67
2021/11/24 05:49:12;;;;;;;6.72;4.47;;;;;;;-140.79;100.00;63287.88;5001883;28;20061;-68
2021/11/24 05:51:38;;;;;;;5.28;4.05;;;;;;;-140.79;100.00;63287.88;4986798;28;20030;-68
2021/11/24 05:54:03;;;;;;;4.80;4.00;;;;;;;-140.79;100.00;63287.88;4986750;28;20027;-68
2021/11/24 05:56:29;;;;;;;4.70;3.72;;;;;;;-140.79;100.00;63287.88;4988127;28;20034;-68
2021/11/24 05:58:55;;;;;;;4.80;3.65;;;;;;;-140.79;100.00;63287.88;4986819;28;20031;-67
2021/11/24 06:01:20;;;;;;;5.22;4.00;;;;;;;-140.79;100.00;63287.88;4987517;28;20030;-67
2021/11/24 06:03:46;;;;;;;5.00;4.03;;;;;;;-140.79;100.00;63287.88;4986647;28;20050;-67
2021/11/24 06:06:11;;;;;;;4.97;4.20;;;;;;;-140.79;100.00;63287.88;5001553;28;20029;-68
2021/11/24 06:08:36;;;;;;;4.80;3.95;;;;;;;-140.79;100.00;63287.88;4988988;28;20097;-68
2021/11/24 06:11:02;;;;;;;5.20;4.10;;;;;;;-140.79;100.00;63287.88;4985261;28;20022;-67
2021/11/24 06:13:27;;;;;;;4.78;3.90;;;;;;;-140.79;100.00;63287.88;4986734;28;20105;-68
2021/11/24 06:15:53;;;;;;;5.20;3.92;;;;;;;-140.79;100.00;63287.88;4987649;28;20042;-66
2021/11/24 06:18:20;;;;;;;5.22;3.92;;;;;;;-140.79;100.00;63287.88;5003615;28;20038;-65
2021/11/24 06:20:46;;;;;;;4.25;3.80;;;;;;;-140.79;100.00;63287.88;5020610;28;20535;-65
2021/11/24 06:23:11;;;;;;;5.32;4.28;;;;;;;-140.79;100.00;63287.88;5025705;28;20025;-64
2021/11/24 06:25:37;;;;;;;4.78;3.72;;;;;;;-140.79;100.00;63287.88;5025729;28;20032;-65
2021/11/24 06:28:04;;;;;;;4.32;3.47;;;;;;;-140.79;100.00;63287.88;5026503;28;20118;-64
2021/11/24 06:30:29;;;;;;;4.35;3.15;;;;;;;-140.79;100.00;63287.88;5025773;28;20496;-64
2021/11/24 06:32:55;;;;;;;4.55;3.78;;;;;;;-140.79;100.00;63287.88;5025923;28;20120;-66
2021/11/24 06:35:20;;;;;;;4.82;3.63;;;;;;;-140.79;100.00;63287.88;5025823;28;20040;-65
2021/11/24 06:37:46;;;;;;;5.10;3.63;;;;;;;-140.79;100.00;63287.88;5023669;28;20025;-66
2021/11/24 06:40:12;;;;;;;5.88;4.10;;;;;;;-140.79;100.00;63287.88;5023735;28;20037;-66
2021/11/24 06:42:37;;;;;;;4.10;3.40;;;;;;;-140.79;100.00;63287.88;5025963;28;20034;-64
2021/11/24 06:45:04;;;;;;;4.57;3.80;;;;;;;-140.79;100.00;63287.88;5027381;28;20029;-68
2021/11/24 06:47:29;;;;;;;4.32;3.70;;;;;;;-140.79;100.00;63287.88;5029220;28;20530;-68
2021/11/24 06:49:54;;;;;;;4.60;3.58;;;;;;;-140.79;100.00;63287.88;5027610;28;20033;-65
2021/11/24 06:52:20;;;;;;;5.13;3.70;;;;;;;-140.79;100.00;63287.88;5026966;28;20041;-65
2021/11/24 06:54:45;;;;;;;5.95;3.80;;;;;;;-140.79;100.00;63287.88;5027393;28;20030;-65
2021/11/24 06:57:11;;;;;;;4.45;3.42;;;;;;;-140.79;100.00;63287.88;5026131;28;20044;-65
2021/11/24 06:59:36;;;;;;;5.80;3.78;;;;;;;-140.79;100.00;63287.88;5027854;28;20618;-65
2021/11/24 07:02:02;;;;;;;4.97;3.72;;;;;;;-140.79;100.00;63287.88;5027447;28;20025;-64
2021/11/24 07:04:28;;;;;;;5.28;3.85;;;;;;;-140.79;100.00;63287.88;5027703;28;20396;-64
2021/11/24 07:06:53;;;;;;;4.60;3.40;;;;;;;-140.79;100.00;63287.88;5027744;28;20045;-66
2021/11/24 07:09:19;;;;;;;5.13;3.90;;;;;;;-140.79;100.00;63287.88;5027608;28;20423;-67
2021/11/24 07:11:44;;;;;;;4.78;3.75;;;;;;;-140.79;100.00;63287.88;5028335;28;20025;-66
2021/11/24 07:14:10;;;;;;;4.88;3.60;;;;;;;-140.79;100.00;63287.88;5026067;28;20024;-67
2021/11/24 07:16:39;;;;;;;4.38;3.67;;;;;;;-140.79;100.00;63287.88;5028188;28;20787;-69
2021/11/24 07:19:04;;;;;;;3.85;3.20;;;;;;;-140.79;100.00;63287.88;5028331;28;20484;-67
2021/11/24 07:21:30;;;;;;;4.75;3.53;;;;;;;-140.79;100.00;63287.88;5027424;28;20051;-68
2021/11/24 07:23:55;;;;;;;4.28;3.38;;;;;;;-140.79;100.00;63287.88;5028240;28;20024;-67
2021/11/24 07:26:21;;;;;;;4.65;3.78;;;;;;;-140.79;100.00;63287.88;5026776;28;20021;-69
2021/11/24 07:28:46;;;;;;;4.68;3.45;;;;;;;-140.79;100.00;63287.88;5027799;28;20029;-68
2021/11/24 07:31:12;;;;;;;4.13;3.40;;;;;;;-140.79;100.00;63287.88;5027279;28;20037;-66
2021/11/24 07:33:37;;;;;;;4.15;3.58;;;;;;;-140.79;100.00;63287.88;5023513;28;20083;-67
2021/11/24 07:36:03;;;;;;;4.25;3.20;;;;;;;-140.79;100.00;63287.88;5027819;28;20529;-66
2021/11/24 07:38:28;;;;;;;4.90;3.55;;;;;;;-140.79;100.00;63287.88;5027538;28;20029;-64
2021/11/24 07:40:54;;;;;;;5.03;3.67;;;;;;;-140.79;100.00;63287.88;5027319;28;20485;-63
2021/11/24 07:43:19;;;;;;;4.82;3.40;;;;;;;-140.79;100.00;63287.88;5027924;28;20789;-65
2021/11/24 07:45:45;;;;;;;5.05;3.67;;;;;;;-140.79;100.00;63287.88;5025971;28;20021;-64
2021/11/24 07:48:11;;;;;;;5.43;4.30;;;;;;;-140.79;100.00;63287.88;5023521;28;20040;-65
2021/11/24 07:50:37;;;;;;;7.45;4.45;;;;;;;-140.79;100.00;63287.88;5012637;28;20071;-64
2021/11/24 07:53:02;;;;;;;7.03;4.07;;;;;;;-140.79;100.00;63287.88;5016721;28;20542;-65
2021/11/24 07:55:28;;;;;;;6.38;4.22;;;;;;;-140.79;100.00;63287.88;5014656;28;20029;-65
2021/11/24 07:57:53;;;;;;;6.10;4.43;;;;;;;-140.79;100.00;63287.88;5012877;28;20467;-64
2021/11/24 08:00:19;;;;;;;5.78;4.32;;;;;;;-140.79;100.00;63287.88;5026214;28;20491;-65
2021/11/24 08:02:45;;;;;;;6.53;4.80;;;;;;;-140.79;100.00;63287.88;5026730;28;20045;-64
2021/11/24 08:05:10;;;;;;;5.63;4.40;;;;;;;-140.79;100.00;63287.88;5026708;28;20107;-65
2021/11/24 08:07:36;;;;;;;6.18;4.38;;;;;;;-140.79;100.00;63287.88;5024924;28;20020;-65
2021/11/24 08:10:10;;;;;;;5.82;4.20;;;;;;;-140.79;100.00;63287.88;5026848;28;20029;-65
2021/11/24 08:12:35;;;;;;;6.68;4.53;;;;;;;-140.79;100.00;63287.88;5021359;28;20028;-65
2021/11/24 08:15:01;;;;;;;6.28;4.38;;;;;;;-140.79;100.00;63287.88;5024172;28;20101;-65
2021/11/24 08:17:26;;;;;;;6.03;4.32;;;;;;;-140.79;100.00;63287.88;5026326;28;20012;-65
2021/11/24 08:19:52;;;;;;;6.75;4.20;;;;;;;-140.79;100.00;63287.88;5024939;28;20021;-65
2021/11/24 08:22:17;;;;;;;5.40;4.13;;;;;;;-140.79;100.00;63287.88;5025398;28;20032;-65
2021/11/24 08:24:43;;;;;;;5.60;4.28;;;;;;;-140.79;100.00;63287.88;4970365;28;20045;-65
2021/11/24 08:27:08;;;;;;;7.40;4.63;;;;;;;-140.79;100.00;63287.88;4997752;28;20025;-65
2021/11/24 08:29:34;;;;;;;6.10;4.40;;;;;;;-140.79;100.00;63287.88;5025964;28;20022;-64
2021/11/24 08:32:00;;;;;;;6.00;4.55;;;;;;;-140.79;100.00;63287.88;5026255;28;20620;-64
2021/11/24 08:34:25;;;;;;;5.70;4.28;;;;;;;-140.79;100.00;63287.88;5026127;28;20029;-64
2021/11/24 08:36:52;;;;;;;6.20;4.20;;;;;;;-140.79;100.00;63287.88;5027518;28;20041;-64
2021/11/24 08:39:17;;;;;;;6.68;4.43;;;;;;;-140.79;100.00;63287.88;5027017;28;20442;-64
2021/11/24 08:41:44;;;;;;;5.20;4.00;;;;;;;-140.79;100.00;63287.88;5025564;28;20029;-65
2021/11/24 08:44:09;;;;;;;5.82;4.07;;;;;;;-140.79;100.00;63287.88;5025032;28;20384;-65
2021/11/24 08:46:35;;;;;;;5.63;4.35;;;;;;;-140.79;100.00;63287.88;5008587;28;20090;-65
2021/11/24 08:49:00;;;;;;;5.78;4.18;;;;;;;-140.79;100.00;63287.88;5025097;28;20535;-65
2021/11/24 08:51:26;;;;;;;5.25;4.10;;;;;;;-140.79;100.00;63287.88;5025472;28;20503;-65
2021/11/24 08:53:51;;;;;;;6.40;4.75;;;;;;;-140.79;100.00;63287.88;5025714;28;20025;-65
2021/11/24 08:56:17;;;;;;;6.82;4.68;;;;;;;-140.79;100.00;63287.88;5026063;28;20055;-65
2021/11/24 08:58:42;;;;;;;6.22;4.40;;;;;;;-140.79;100.00;63287.88;5026036;28;20029;-64
2021/11/24 09:01:08;;;;;;;6.03;4.35;;;;;;;-140.79;100.00;63287.88;5025911;28;20033;-64
2021/11/24 09:03:33;;;;;;;6.63;4.70;;;;;;;-140.79;100.00;63287.88;5024844;28;20060;-65
2021/11/24 09:05:59;;;;;;;5.30;4.03;;;;;;;-140.79;100.00;63287.88;5026283;28;20087;-65
2021/11/24 09:08:25;;;;;;;6.68;4.72;;;;;;;-140.79;100.00;63287.88;5025960;28;20037;-65
2021/11/24 09:10:51;;;;;;;6.28;4.20;;;;;;;-140.79;100.00;63287.88;5026829;28;20034;-68
2021/11/24 09:13:16;;;;;;;6.93;4.45;;;;;;;-140.79;100.00;63287.88;5008761;28;20495;-65
2021/11/24 09:15:42;;;;;;;6.80;4.70;;;;;;;-140.79;100.00;63287.88;5026630;28;20491;-67
2021/11/24 09:18:08;;;;;;;6.03;4.15;;;;;;;-140.79;100.00;63287.88;5025295;28;20037;-64
2021/11/24 09:20:34;;;;;;;5.57;4.47;;;;;;;-140.79;100.00;63287.88;5025263;28;20511;-64
2021/11/24 09:23:01;;;;;;;7.70;4.72;;;;;;;-140.79;100.00;63287.88;5022334;28;20153;-64
2021/11/24 09:25:37;;;;;;;6.25;4.40;;;;;;;-140.79;100.00;63287.88;5024642;28;20068;-64
2021/11/24 09:28:10;;;;;;;6.53;4.68;;;;;;;-140.79;100.00;63287.88;5025593;28;20087;-64
2021/11/24 09:30:36;;;;;;;5.97;4.63;;;;;;;-140.79;100.00;63287.88;5025336;28;20083;-65
2021/11/24 09:33:01;;;;;;;5.32;4.15;;;;;;;-140.79;100.00;63287.88;5025497;28;20021;-65
2021/11/24 09:35:27;;;;;;;5.80;3.90;;;;;;;-140.79;100.00;63287.88;5025244;28;20025;-65
2021/11/24 09:37:52;;;;;;;7.20;4.50;;;;;;;-140.79;100.00;63287.88;5025302;28;20313;-65
2021/11/24 09:40:18;;;;;;;6.38;4.50;;;;;;;-140.79;100.00;63287.88;5023052;28;20025;-65
2021/11/24 09:42:45;;;;;;;5.50;4.28;;;;;;;-140.79;100.00;63287.88;5025172;28;20514;-65
2021/11/24 09:45:11;;;;;;;6.90;4.88;;;;;;;-140.79;100.00;63287.88;5022615;28;20038;-64
2021/11/24 09:47:36;;;;;;;6.93;4.82;;;;;;;-140.79;100.00;63287.88;5025585;28;20029;-65
2021/11/24 09:50:04;;;;;;;6.80;4.70;;;;;;;-140.79;100.00;63287.88;5007133;28;20029;-65
2021/11/24 09:52:29;;;;;;;5.82;4.70;;;;;;;-140.79;100.00;63287.88;5025205;28;20033;-65
2021/11/24 09:54:55;;;;;;;5.65;4.30;;;;;;;-140.79;100.00;63287.88;5025198;28;20026;-65
2021/11/24 09:57:26;;;;;;;7.13;4.47;;;;;;;-140.79;100.00;63287.88;5025398;28;20565;-64
2021/11/24 09:59:52;;;;;;;5.97;3.75;;;;;;;-140.79;100.00;63287.88;5025992;28;20148;-63
2021/11/24 10:02:18;;;;;;;7.88;4.88;;;;;;;-140.79;100.00;63287.88;5025368;28;20037;-64
2021/11/24 10:04:44;;;;;;;6.20;4.93;;;;;;;-140.79;100.00;63287.88;5020782;28;20036;-63
2021/11/24 10:07:10;;;;;;;5.45;4.35;;;;;;;-140.79;100.00;63287.88;5020016;28;20055;-65
2021/11/24 10:09:36;;;;;;;5.45;4.13;;;;;;;-140.79;100.00;63287.88;5022482;28;20049;-64
2021/11/24 10:12:01;;;;;;;6.35;4.82;;;;;;;-140.79;100.00;63287.88;5023321;28;20017;-64
2021/11/24 10:14:27;;;;;;;5.88;4.50;;;;;;;-140.79;100.00;63287.88;5022723;28;20017;-65
2021/11/24 10:17:08;;;;;;;6.93;4.53;;;;;;;-140.79;100.00;63287.88;5025310;28;20037;-65
2021/11/24 10:19:34;;;;;;;5.85;4.30;;;;;;;-140.79;100.00;63287.88;5026641;28;20389;-63
2021/11/24 10:22:11;;;;;;;7.70;4.63;;;;;;;-140.79;100.00;63287.88;5029634;28;20030;-63
2021/11/24 10:24:38;;;;;;;5.60;4.60;;;;;;;-140.79;100.00;63287.88;5029809;28;20024;-64
2021/11/24 10:27:05;;;;;;;6.32;4.30;;;;;;;-140.79;100.00;63287.88;5028620;28;20030;-64
2021/11/24 10:29:31;;;;;;;7.10;4.47;;;;;;;-140.79;100.00;63287.88;5027840;28;20027;-64
2021/11/24 10:32:01;;;;;;;6.03;5.07;;;;;;;-140.79;100.00;63287.88;5029494;28;20112;-63
2021/11/24 10:34:32;;;;;;;7.75;5.65;;;;;;;-140.79;100.00;63287.88;5027650;28;20029;-65
2021/11/24 10:37:06;;;;;;;10.88;5.63;;;;;;;-140.79;100.00;63287.88;5028971;28;20048;-63
2021/11/24 10:39:39;;;;;;;6.93;4.65;;;;;;;-140.79;100.00;63287.88;5029450;28;20532;-64
2021/11/24 10:42:14;;;;;;;6.03;4.70;;;;;;;-140.79;100.00;63287.88;5029574;28;20017;-65
2021/11/24 10:44:45;;;;;;;7.30;4.50;;;;;;;-140.79;100.00;63287.88;5028861;28;20045;-64
2021/11/24 10:47:13;;;;;;;6.55;4.60;;;;;;;-140.79;100.00;63287.88;5029559;28;20039;-64
2021/11/24 10:50:05;;;;;;;6.22;4.40;;;;;;;-140.79;100.00;63287.88;5029184;28;20033;-65
2021/11/24 10:52:43;;;;;;;6.22;4.78;;;;;;;-140.79;100.00;63287.88;5027124;28;20073;-64
2021/11/24 10:55:23;;;;;;;6.82;4.68;;;;;;;-140.79;100.00;63287.88;5027198;28;20469;-66
2021/11/24 10:58:16;;;;;;;6.78;4.28;;;;;;;-140.79;100.00;63287.88;5027332;28;20029;-64
2021/11/24 11:00:47;;;;;;;7.18;4.05;;;;;;;-140.79;100.00;63287.88;5027552;28;20083;-66
2021/11/24 11:03:13;;;;;;;8.00;5.13;;;;;;;-140.79;100.00;63287.88;5026891;28;20136;-66
2021/11/24 11:05:44;;;;;;;7.35;4.90;;;;;;;-140.79;100.00;63287.88;5008775;28;20121;-64
2021/11/24 11:08:11;;;;;;;8.60;5.43;;;;;;;-140.79;100.00;63287.88;5025350;28;20024;-65